createdAt,value
2019-03-15T00:02:54.032Z,9.1
2019-03-15T00:12:53.241Z,9
2019-03-15T00:22:52.453Z,8.8
2019-03-15T00:32:51.664Z,8.6
2019-03-15T00:42:50.878Z,8.6
2019-03-15T00:52:50.087Z,8.6
2019-03-15T01:02:49.298Z,8.6
2019-03-15T01:12:48.512Z,8.7
2019-03-15T01:22:47.722Z,8.7
2019-03-15T01:32:46.935Z,8.8
2019-03-15T01:42:46.144Z,8.8
2019-03-15T01:52:45.355Z,8.8
2019-03-15T02:02:44.565Z,8.7
2019-03-15T02:12:43.776Z,8.6
2019-03-15T02:22:42.989Z,8.4
2019-03-15T02:32:42.196Z,8.3
2019-03-15T02:42:41.445Z,8.1
2019-03-15T02:52:41.826Z,7.9
2019-03-15T03:02:39.828Z,7.9
2019-03-15T03:12:39.043Z,7.8
2019-03-15T03:22:38.250Z,7.7
2019-03-15T03:32:37.465Z,7.6
2019-03-15T03:42:36.716Z,7.4
2019-03-15T03:52:36.953Z,7.4
2019-03-15T04:02:36.161Z,7.4
2019-03-15T04:12:35.371Z,7.4
2019-03-15T04:22:34.580Z,7.4
2019-03-15T04:32:34.260Z,7.4
2019-03-15T04:42:33.000Z,7.3
2019-03-15T04:52:32.213Z,5.5
2019-03-15T05:02:31.423Z,4.3
2019-03-15T05:12:30.634Z,3.9
2019-03-15T05:22:29.846Z,3.9
2019-03-15T05:32:30.981Z,4.2
2019-03-15T05:42:28.270Z,5.1
2019-03-15T05:52:27.484Z,5.6
2019-03-15T06:02:26.694Z,6.8
2019-03-15T06:12:25.905Z,8.2
2019-03-15T06:22:25.116Z,8.9
2019-03-15T06:32:24.328Z,10.2
2019-03-15T06:42:23.539Z,11.3
2019-03-15T06:52:22.752Z,11.6
2019-03-15T07:02:21.963Z,11.9
2019-03-15T07:12:21.178Z,12.3
2019-03-15T07:22:20.390Z,13.6
2019-03-15T07:32:19.597Z,14.3
2019-03-15T07:42:18.812Z,15.1
2019-03-15T07:52:18.081Z,16.7
2019-03-15T08:02:17.227Z,17.1
2019-03-15T08:12:16.440Z,19.4
2019-03-15T08:22:15.652Z,22.1
2019-03-15T08:32:14.863Z,22.4
2019-03-15T08:42:14.076Z,22.9
2019-03-15T08:52:13.288Z,21.7
2019-03-15T09:02:12.500Z,20.8
2019-03-15T09:12:11.713Z,20.9
2019-03-15T09:22:10.928Z,21
2019-03-15T09:32:10.142Z,21.7
2019-03-15T09:42:09.351Z,21
2019-03-15T09:52:08.564Z,20
2019-03-15T10:02:08.055Z,20.9
2019-03-15T10:12:06.988Z,21.2
2019-03-15T10:22:06.200Z,21.5
2019-03-15T10:32:05.413Z,21.1
2019-03-15T10:42:04.623Z,21.1
2019-03-15T10:52:03.835Z,20.6
2019-03-15T11:02:03.045Z,19.9
2019-03-15T11:12:02.314Z,19.3
2019-03-15T11:22:01.471Z,18.6
2019-03-15T11:32:00.685Z,17.6
2019-03-15T11:41:59.899Z,16.3
2019-03-15T11:51:59.114Z,15.9
2019-03-15T12:02:03.706Z,15.3
2019-03-15T12:11:57.535Z,15.3
2019-03-15T12:22:05.951Z,15.3
2019-03-15T12:31:55.957Z,14.5
2019-03-15T12:41:55.167Z,14.1
2019-03-15T12:51:54.377Z,13.5
2019-03-15T13:01:53.590Z,13.5
2019-03-15T13:11:52.799Z,13.1
2019-03-15T13:21:52.010Z,12.9
2019-03-15T13:31:51.221Z,12.9
2019-03-15T13:41:50.430Z,13.3
2019-03-15T13:51:49.639Z,13.4
2019-03-15T14:01:48.849Z,13.1
2019-03-15T14:11:48.057Z,12.6
2019-03-15T14:21:48.597Z,12.3
2019-03-15T14:31:46.475Z,11.8
2019-03-15T14:41:45.691Z,11.7
2019-03-15T14:51:44.973Z,11.6
2019-03-15T15:01:44.103Z,11.3
2019-03-15T15:11:43.314Z,11.2
2019-03-15T15:21:42.519Z,11.1
2019-03-15T15:31:41.728Z,11.1
2019-03-15T15:41:40.936Z,11
2019-03-15T15:51:40.145Z,10.8
2019-03-15T16:01:39.354Z,10.6
2019-03-15T16:11:38.561Z,10.3
2019-03-15T16:21:37.770Z,9.9
2019-03-15T16:31:36.980Z,9.9
2019-03-15T16:41:36.190Z,10.4
2019-03-15T16:52:05.768Z,10.6
2019-03-15T17:02:04.979Z,10.7
2019-03-15T17:12:04.200Z,10.8
2019-03-15T17:22:03.405Z,10.6
2019-03-15T17:32:02.613Z,10.5
2019-03-15T17:42:01.824Z,10.4
2019-03-15T17:52:01.083Z,10.6
2019-03-15T18:02:00.370Z,10.8
2019-03-15T18:11:59.661Z,10.8
2019-03-15T18:21:58.949Z,10.6
2019-03-15T18:31:58.241Z,10.4
2019-03-15T18:41:57.532Z,10.2
2019-03-15T18:51:56.743Z,10.2
2019-03-15T19:01:55.956Z,10.1
2019-03-15T19:11:55.167Z,10.1
2019-03-15T19:21:54.435Z,10.1
2019-03-15T19:31:53.590Z,10
2019-03-15T19:41:52.799Z,10
2019-03-15T19:51:52.016Z,10.1
2019-03-15T20:01:51.223Z,10.1
2019-03-15T20:11:50.434Z,10.2
2019-03-15T20:21:49.659Z,10.2
2019-03-15T20:31:48.863Z,10.2
2019-03-15T20:41:48.076Z,10.3
2019-03-15T20:51:47.287Z,10.4
2019-03-15T21:01:48.967Z,10.4
2019-03-15T21:13:20.622Z,10.3
2019-03-15T21:23:19.833Z,10.1
2019-03-15T21:33:19.042Z,10
2019-03-15T21:43:18.253Z,9.9
2019-03-15T21:53:17.463Z,9.9
2019-03-15T22:03:16.676Z,9.9
2019-03-15T22:13:15.937Z,9.9
2019-03-15T22:23:15.223Z,9.8
2019-03-15T22:33:14.514Z,9.8
2019-03-15T22:43:13.801Z,9.7
2019-03-15T22:53:13.090Z,9.6
2019-03-15T23:03:12.380Z,9.6
2019-03-15T23:13:11.591Z,9.6
2019-03-15T23:23:23.073Z,9.7
2019-03-15T23:33:10.010Z,9.8
2019-03-15T23:43:09.220Z,9.8
2019-03-15T23:53:08.429Z,9.7
